createdAt,value
2022-08-01T00:02:28.099Z,5.97
2022-08-01T00:06:53.395Z,5.53
2022-08-01T00:11:20.098Z,10.33
2022-08-01T00:15:53.975Z,7.43
2022-08-01T00:20:19.772Z,7.10
2022-08-01T00:24:45.041Z,8.60
2022-08-01T00:29:13.234Z,8.83
2022-08-01T00:33:55.522Z,9.27
2022-08-01T00:38:20.807Z,11.30
2022-08-01T00:42:46.043Z,12.57
2022-08-01T00:47:11.247Z,11.37
2022-08-01T00:51:36.562Z,10.50
2022-08-01T00:56:03.312Z,14.33
2022-08-01T01:00:28.781Z,11.10
2022-08-01T01:04:54.104Z,10.70
2022-08-01T01:09:59.898Z,12.27
2022-08-01T01:14:40.217Z,11.03
2022-08-01T01:19:10.184Z,11.82
2022-08-01T01:24:15.461Z,10.60
2022-08-01T01:29:59.989Z,12.50
2022-08-01T01:34:23.383Z,15.10
2022-08-01T01:38:50.734Z,20.73
2022-08-01T01:43:17.720Z,14.80
2022-08-01T01:47:45.648Z,20.83
2022-08-01T01:52:14.126Z,21.67
2022-08-01T01:56:49.611Z,20.47
2022-08-01T02:01:15.998Z,19.90
2022-08-01T02:06:02.650Z,17.40
2022-08-01T02:10:29.662Z,23.63
2022-08-01T02:14:57.053Z,23.87
2022-08-01T02:19:22.492Z,21.27
2022-08-01T02:23:49.285Z,20.00
2022-08-01T02:28:19.105Z,26.00
2022-08-01T02:32:51.164Z,28.70
2022-08-01T02:37:18.719Z,27.03
2022-08-01T02:41:49.848Z,23.80
2022-08-01T02:46:23.605Z,22.33
2022-08-01T02:50:50.820Z,28.60
2022-08-01T02:55:17.273Z,28.38
2022-08-01T02:59:44.999Z,24.02
2022-08-01T03:04:12.887Z,21.67
2022-08-01T03:08:39.129Z,28.27
2022-08-01T03:13:07.751Z,26.07
2022-08-01T03:17:34.621Z,33.43
2022-08-01T03:22:01.039Z,21.30
2022-08-01T03:26:33.156Z,29.67
2022-08-01T03:31:00.721Z,23.00
2022-08-01T03:35:35.604Z,25.10
2022-08-01T03:40:16.773Z,25.30
2022-08-01T03:44:49.215Z,23.40
2022-08-01T03:49:31.317Z,21.27
2022-08-01T03:53:57.402Z,23.93
2022-08-01T03:58:23.014Z,22.20
2022-08-01T04:02:50.334Z,23.37
2022-08-01T04:07:26.105Z,25.07
2022-08-01T04:11:51.397Z,21.90
2022-08-01T04:16:16.688Z,22.87
2022-08-01T04:20:42.515Z,28.20
2022-08-01T04:25:18.274Z,27.87
2022-08-01T04:29:44.136Z,32.33
2022-08-01T04:34:13.844Z,26.17
2022-08-01T04:38:41.508Z,22.37
2022-08-01T04:43:06.915Z,36.20
2022-08-01T04:47:32.953Z,24.53
2022-08-01T04:51:58.843Z,26.60
2022-08-01T04:56:24.074Z,26.77
2022-08-01T05:00:49.424Z,22.00
2022-08-01T05:05:15.845Z,26.33
2022-08-01T05:09:42.407Z,25.73
2022-08-01T05:20:38.304Z,19.93
2022-08-01T05:30:39.980Z,18.90
2022-08-01T05:35:06.371Z,18.13
2022-08-01T05:39:31.808Z,23.63
2022-08-01T05:43:57.312Z,13.23
2022-08-01T05:48:22.825Z,11.30
2022-08-01T05:52:48.259Z,10.20
2022-08-01T05:57:13.673Z,9.50
2022-08-01T06:01:40.909Z,7.40
2022-08-01T06:06:10.510Z,4.47
2022-08-01T06:10:35.865Z,4.90
2022-08-01T06:15:01.306Z,4.27
2022-08-01T06:19:27.389Z,7.10
2022-08-01T06:23:52.703Z,4.13
2022-08-01T06:28:17.968Z,5.20
2022-08-01T06:32:43.261Z,5.43
2022-08-01T06:37:08.529Z,4.30
2022-08-01T06:41:33.974Z,4.20
2022-08-01T06:45:59.413Z,7.13
2022-08-01T06:50:24.897Z,7.60
2022-08-01T06:54:50.570Z,4.30
2022-08-01T06:59:16.211Z,7.67
2022-08-01T07:03:53.823Z,7.83
2022-08-01T07:08:20.484Z,5.60
2022-08-01T07:12:45.753Z,6.43
2022-08-01T07:17:11.022Z,6.23
2022-08-01T07:21:40.665Z,6.07
2022-08-01T07:26:07.546Z,8.23
2022-08-01T07:30:32.769Z,7.13
2022-08-01T07:34:58.101Z,6.60
2022-08-01T07:39:25.647Z,8.55
2022-08-01T07:43:57.330Z,9.20
2022-08-01T07:48:25.809Z,11.23
2022-08-01T07:52:51.215Z,9.90
2022-08-01T07:57:16.456Z,6.53
2022-08-01T08:01:42.566Z,10.97
2022-08-01T08:06:07.870Z,4.63
2022-08-01T08:10:34.281Z,6.03
2022-08-01T08:15:01.610Z,6.10
2022-08-01T08:19:38.441Z,5.13
2022-08-01T08:24:26.457Z,4.93
2022-08-01T08:28:52.481Z,9.83
2022-08-01T08:33:18.087Z,8.90
2022-08-01T08:37:47.601Z,4.90
2022-08-01T08:42:14.485Z,4.93
2022-08-01T08:46:49.628Z,10.10
2022-08-01T08:51:18.112Z,4.90
2022-08-01T08:55:56.295Z,4.70
2022-08-01T09:00:22.197Z,5.23
2022-08-01T09:04:50.660Z,5.03
2022-08-01T09:09:16.103Z,2.80
2022-08-01T09:13:45.373Z,4.40
2022-08-01T09:18:40.365Z,4.90
2022-08-01T09:23:05.655Z,3.47
2022-08-01T09:27:31.774Z,1.97
2022-08-01T09:32:00.317Z,3.93
2022-08-01T09:36:49.493Z,2.10
2022-08-01T09:41:14.832Z,3.00
2022-08-01T09:45:41.564Z,6.23
2022-08-01T09:50:11.249Z,4.10
2022-08-01T09:54:36.889Z,7.33
2022-08-01T09:59:02.907Z,4.87
2022-08-01T10:03:30.536Z,8.63
2022-08-01T10:08:07.726Z,2.87
2022-08-01T10:12:34.198Z,8.97
2022-08-01T10:17:05.198Z,4.47
2022-08-01T10:21:56.493Z,4.03
2022-08-01T10:26:19.587Z,5.75
2022-08-01T10:30:53.317Z,5.43
2022-08-01T10:35:46.000Z,6.13
2022-08-01T10:40:29.294Z,4.33
2022-08-01T10:44:53.253Z,2.50
2022-08-01T10:49:22.786Z,5.27
2022-08-01T10:53:54.794Z,9.43
2022-08-01T10:58:44.979Z,10.97
2022-08-01T11:03:10.402Z,9.03
2022-08-01T11:08:02.247Z,6.77
2022-08-01T11:12:40.261Z,8.27
2022-08-01T11:17:37.419Z,6.83
2022-08-01T11:22:05.014Z,6.70
2022-08-01T11:26:30.273Z,11.00
2022-08-01T11:31:18.128Z,5.27
2022-08-01T11:36:15.033Z,9.17
2022-08-01T11:40:41.133Z,9.70
2022-08-01T11:45:12.503Z,6.40
2022-08-01T11:49:49.777Z,8.43
2022-08-01T11:54:16.406Z,5.43
2022-08-01T11:59:01.048Z,6.50
2022-08-01T12:03:33.803Z,7.00
2022-08-01T12:07:59.969Z,6.40
2022-08-01T12:12:25.367Z,7.53
2022-08-01T12:16:55.193Z,3.53
2022-08-01T12:21:20.568Z,3.33
2022-08-01T12:25:52.291Z,5.40
2022-08-01T12:30:23.549Z,4.73
2022-08-01T12:34:48.940Z,8.33
2022-08-01T12:39:14.164Z,7.10
2022-08-01T12:43:39.417Z,6.50
2022-08-01T12:48:17.352Z,8.03
2022-08-01T12:52:43.624Z,7.60
2022-08-01T12:57:25.873Z,3.80
2022-08-01T13:01:51.208Z,5.27
2022-08-01T13:06:18.048Z,5.83
2022-08-01T13:10:44.501Z,2.50
2022-08-01T13:15:21.100Z,10.03
2022-08-01T13:19:48.229Z,10.93
2022-08-01T13:24:14.476Z,7.70
2022-08-01T13:28:39.715Z,6.50
2022-08-01T13:33:05.050Z,9.03
2022-08-01T13:37:30.272Z,6.30
2022-08-01T13:41:57.617Z,4.20
2022-08-01T13:46:23.044Z,8.87
2022-08-01T13:51:02.145Z,3.23
2022-08-01T13:55:35.197Z,4.33
2022-08-01T14:00:01.012Z,2.63
2022-08-01T14:04:26.241Z,4.20
2022-08-01T14:08:51.570Z,4.33
2022-08-01T14:13:16.906Z,2.50
2022-08-01T14:17:47.852Z,6.63
2022-08-01T14:22:13.442Z,3.90
2022-08-01T14:26:38.857Z,7.80
2022-08-01T14:31:06.715Z,8.43
2022-08-01T14:36:01.466Z,5.90
2022-08-01T14:40:19.799Z,4.03
2022-08-01T14:44:49.832Z,3.27
2022-08-01T14:49:15.668Z,3.30
2022-08-01T14:53:46.484Z,11.90
2022-08-01T14:58:12.383Z,4.73
2022-08-01T15:02:37.631Z,7.90
2022-08-01T15:07:02.830Z,5.53
2022-08-01T15:11:34.151Z,4.37
2022-08-01T15:16:00.451Z,5.10
2022-08-01T15:20:27.881Z,3.60
2022-08-01T15:24:57.471Z,2.63
2022-08-01T15:29:22.935Z,7.63
2022-08-01T15:33:48.137Z,3.00
2022-08-01T15:38:13.359Z,5.70
2022-08-01T15:42:38.765Z,7.03
2022-08-01T15:47:05.209Z,6.70
2022-08-01T15:51:30.419Z,7.70
2022-08-01T15:55:55.644Z,3.83
2022-08-01T16:00:20.932Z,9.27
2022-08-01T16:04:46.139Z,9.07
2022-08-01T16:09:18.464Z,5.03
2022-08-01T16:13:44.906Z,3.90
2022-08-01T16:18:15.954Z,6.17
2022-08-01T16:22:41.158Z,6.00
2022-08-01T16:27:06.593Z,7.53
2022-08-01T16:31:41.760Z,6.33
2022-08-01T16:36:17.576Z,5.83
2022-08-01T16:40:47.194Z,5.43
2022-08-01T16:45:14.602Z,8.83
2022-08-01T16:49:39.906Z,6.03
2022-08-01T16:54:06.025Z,7.00
2022-08-01T16:58:51.260Z,9.00
2022-08-01T17:03:17.555Z,5.83
2022-08-01T17:08:02.015Z,4.00
2022-08-01T17:12:28.493Z,8.20
2022-08-01T17:16:53.772Z,8.80
2022-08-01T17:21:19.031Z,8.63
2022-08-01T17:25:44.555Z,12.33
2022-08-01T17:30:10.505Z,8.63
2022-08-01T17:34:35.778Z,7.03
2022-08-01T17:39:02.725Z,8.40
2022-08-01T17:43:28.121Z,5.23
2022-08-01T17:47:53.430Z,11.77
2022-08-01T17:52:18.975Z,5.37
2022-08-01T17:56:46.026Z,7.43
2022-08-01T18:01:11.850Z,8.43
2022-08-01T18:05:38.248Z,8.40
2022-08-01T18:10:04.148Z,14.13
2022-08-01T18:14:40.647Z,15.07
2022-08-01T18:19:06.900Z,7.30
2022-08-01T18:23:33.723Z,6.17
2022-08-01T18:28:16.299Z,9.10
2022-08-01T18:32:44.318Z,13.00
2022-08-01T18:37:12.206Z,6.60
2022-08-01T18:41:40.464Z,10.57
2022-08-01T18:46:06.460Z,10.67
2022-08-01T18:50:31.701Z,3.93
2022-08-01T18:54:56.945Z,10.03
2022-08-01T18:59:22.280Z,8.60
2022-08-01T19:03:47.768Z,7.67
2022-08-01T19:08:13.026Z,6.97
2022-08-01T19:12:38.327Z,4.80
2022-08-01T19:17:04.039Z,9.60
2022-08-01T19:21:29.411Z,10.90
2022-08-01T19:25:57.963Z,4.27
2022-08-01T19:30:24.605Z,8.90
2022-08-01T19:35:06.363Z,4.83
2022-08-01T19:39:31.614Z,11.07
2022-08-01T19:44:01.956Z,5.37
2022-08-01T19:48:27.812Z,9.00
2022-08-01T19:52:54.979Z,8.90
2022-08-01T19:57:21.700Z,5.33
2022-08-01T20:01:48.819Z,7.67
2022-08-01T20:06:14.090Z,5.60
2022-08-01T20:10:41.099Z,4.97
2022-08-01T20:15:07.192Z,12.03
2022-08-01T20:19:32.582Z,5.43
2022-08-01T20:24:03.288Z,4.77
2022-08-01T20:28:29.738Z,10.23
2022-08-01T20:32:58.091Z,9.20
2022-08-01T20:37:49.665Z,6.00
2022-08-01T20:42:11.881Z,7.80
2022-08-01T20:46:38.836Z,6.67
2022-08-01T20:51:16.369Z,8.50
2022-08-01T20:55:49.411Z,5.50
2022-08-01T21:00:15.126Z,8.03
2022-08-01T21:04:53.052Z,10.80
2022-08-01T21:09:23.795Z,7.07
2022-08-01T21:13:50.653Z,9.07
2022-08-01T21:18:40.360Z,16.17
2022-08-01T21:23:14.408Z,9.43
2022-08-01T21:27:40.667Z,6.75
2022-08-01T21:32:15.395Z,9.18
2022-08-01T21:36:44.383Z,7.50
2022-08-01T21:41:09.998Z,4.30
2022-08-01T21:45:38.443Z,5.87
2022-08-01T21:50:24.419Z,4.00
2022-08-01T21:55:35.162Z,8.90
2022-08-01T22:00:08.822Z,9.63
2022-08-01T22:05:07.247Z,7.20
2022-08-01T22:09:33.229Z,12.57
2022-08-01T22:14:04.999Z,12.77
2022-08-01T22:18:32.423Z,11.03
2022-08-01T22:22:58.513Z,5.70
2022-08-01T22:28:02.854Z,11.27
2022-08-01T22:32:09.672Z,7.07
2022-08-01T22:36:35.260Z,7.90
2022-08-01T22:41:05.921Z,10.70
2022-08-01T22:45:48.325Z,8.18
2022-08-01T22:50:36.595Z,3.47
2022-08-01T22:55:07.819Z,13.50
2022-08-01T22:59:43.190Z,5.27
2022-08-01T23:04:20.271Z,13.70
2022-08-01T23:08:56.467Z,6.50
2022-08-01T23:13:23.066Z,7.17
2022-08-01T23:17:49.895Z,6.33
2022-08-01T23:22:16.305Z,3.37
2022-08-01T23:26:42.578Z,5.13
2022-08-01T23:31:08.518Z,7.60
2022-08-01T23:35:36.892Z,8.53
2022-08-01T23:40:05.024Z,5.07
2022-08-01T23:44:30.449Z,6.47
2022-08-01T23:48:55.754Z,6.80
2022-08-01T23:53:21.024Z,11.13
2022-08-01T23:57:46.883Z,6.07
